sensor_id;sensor_type;location;lat;lon;timestamp;pressure;altitude;pressure_sealevel;temperature;humidity
11985;BME280;6052;53.246;10.368;2024-02-14T00:01:29;101142.84;;;6.58;100.00
11985;BME280;6052;53.246;10.368;2024-02-14T00:03:59;101139.56;;;6.56;100.00
11985;BME280;6052;53.246;10.368;2024-02-14T00:06:29;101148.19;;;6.65;100.00
11985;BME280;6052;53.246;10.368;2024-02-14T00:09:07;101141.00;;;6.59;100.00
11985;BME280;6052;53.246;10.368;2024-02-14T00:11:37;101136.88;;;6.50;100.00
11985;BME280;6052;53.246;10.368;2024-02-14T00:14:07;101137.72;;;6.57;100.00
11985;BME280;6052;53.246;10.368;2024-02-14T00:16:37;101129.28;;;6.47;100.00
11985;BME280;6052;53.246;10.368;2024-02-14T00:19:06;101128.03;;;6.43;100.00
11985;BME280;6052;53.246;10.368;2024-02-14T00:21:36;101129.25;;;6.40;100.00
11985;BME280;6052;53.246;10.368;2024-02-14T00:24:09;101132.16;;;6.45;100.00
11985;BME280;6052;53.246;10.368;2024-02-14T00:26:39;101121.84;;;6.36;100.00
11985;BME280;6052;53.246;10.368;2024-02-14T00:29:09;101127.00;;;6.44;100.00
11985;BME280;6052;53.246;10.368;2024-02-14T00:31:39;101123.66;;;6.29;100.00
11985;BME280;6052;53.246;10.368;2024-02-14T00:34:11;101127.63;;;6.46;100.00
11985;BME280;6052;53.246;10.368;2024-02-14T00:36:41;101120.88;;;6.50;100.00
11985;BME280;6052;53.246;10.368;2024-02-14T00:39:13;101122.06;;;6.41;100.00
11985;BME280;6052;53.246;10.368;2024-02-14T00:41:43;101119.25;;;6.55;100.00
11985;BME280;6052;53.246;10.368;2024-02-14T00:44:13;101121.28;;;6.47;100.00
11985;BME280;6052;53.246;10.368;2024-02-14T00:46:43;101118.19;;;6.50;100.00
11985;BME280;6052;53.246;10.368;2024-02-14T00:49:13;101116.56;;;6.49;100.00
11985;BME280;6052;53.246;10.368;2024-02-14T00:51:43;101109.41;;;6.49;100.00
11985;BME280;6052;53.246;10.368;2024-02-14T00:54:15;101114.28;;;6.39;100.00
11985;BME280;6052;53.246;10.368;2024-02-14T00:56:46;101109.81;;;6.53;100.00
11985;BME280;6052;53.246;10.368;2024-02-14T00:59:16;101113.91;;;6.49;100.00
11985;BME280;6052;53.246;10.368;2024-02-14T01:01:46;101106.06;;;6.41;100.00
11985;BME280;6052;53.246;10.368;2024-02-14T01:04:16;101111.06;;;6.57;100.00
11985;BME280;6052;53.246;10.368;2024-02-14T01:06:46;101108.56;;;6.49;100.00
11985;BME280;6052;53.246;10.368;2024-02-14T01:09:21;101099.38;;;6.58;100.00
11985;BME280;6052;53.246;10.368;2024-02-14T01:11:51;101100.78;;;6.54;100.00
11985;BME280;6052;53.246;10.368;2024-02-14T01:14:20;101099.31;;;6.45;100.00
11985;BME280;6052;53.246;10.368;2024-02-14T01:16:50;101092.19;;;6.52;100.00
11985;BME280;6052;53.246;10.368;2024-02-14T01:19:20;101097.09;;;6.55;100.00
11985;BME280;6052;53.246;10.368;2024-02-14T01:21:50;101099.16;;;6.53;100.00
11985;BME280;6052;53.246;10.368;2024-02-14T01:24:23;101096.69;;;6.51;100.00
11985;BME280;6052;53.246;10.368;2024-02-14T01:26:53;101094.06;;;6.64;100.00
11985;BME280;6052;53.246;10.368;2024-02-14T01:29:23;101095.44;;;6.54;100.00
11985;BME280;6052;53.246;10.368;2024-02-14T01:31:53;101081.72;;;6.63;100.00
11985;BME280;6052;53.246;10.368;2024-02-14T01:34:23;101082.97;;;6.67;100.00
11985;BME280;6052;53.246;10.368;2024-02-14T01:36:55;101081.50;;;6.58;100.00
11985;BME280;6052;53.246;10.368;2024-02-14T01:39:27;101077.44;;;6.75;100.00
11985;BME280;6052;53.246;10.368;2024-02-14T01:41:57;101076.22;;;6.71;100.00
11985;BME280;6052;53.246;10.368;2024-02-14T01:44:27;101073.72;;;6.63;100.00
11985;BME280;6052;53.246;10.368;2024-02-14T01:46:58;101072.72;;;6.77;100.00
11985;BME280;6052;53.246;10.368;2024-02-14T01:49:28;101066.78;;;6.82;100.00
11985;BME280;6052;53.246;10.368;2024-02-14T01:52:01;101070.69;;;6.79;100.00
11985;BME280;6052;53.246;10.368;2024-02-14T01:54:33;101062.88;;;6.71;100.00
11985;BME280;6052;53.246;10.368;2024-02-14T01:57:05;101058.97;;;6.67;100.00
11985;BME280;6052;53.246;10.368;2024-02-14T01:59:35;101058.59;;;6.77;100.00
11985;BME280;6052;53.246;10.368;2024-02-14T02:02:05;101052.59;;;6.75;100.00
11985;BME280;6052;53.246;10.368;2024-02-14T02:04:36;101045.25;;;6.77;100.00
11985;BME280;6052;53.246;10.368;2024-02-14T02:07:06;101045.03;;;6.78;100.00
11985;BME280;6052;53.246;10.368;2024-02-14T02:09:38;101041.72;;;6.70;100.00
11985;BME280;6052;53.246;10.368;2024-02-14T02:12:08;101043.38;;;6.58;100.00
11985;BME280;6052;53.246;10.368;2024-02-14T02:14:38;101034.13;;;6.54;100.00
11985;BME280;6052;53.246;10.368;2024-02-14T02:17:09;101029.19;;;6.57;100.00
11985;BME280;6052;53.246;10.368;2024-02-14T02:19:39;101022.22;;;6.50;100.00
11985;BME280;6052;53.246;10.368;2024-02-14T02:22:09;101022.44;;;6.55;100.00
11985;BME280;6052;53.246;10.368;2024-02-14T02:24:42;101021.22;;;6.64;100.00
11985;BME280;6052;53.246;10.368;2024-02-14T02:27:12;101021.00;;;6.59;100.00
11985;BME280;6052;53.246;10.368;2024-02-14T02:29:43;101009.50;;;6.52;100.00
11985;BME280;6052;53.246;10.368;2024-02-14T02:32:13;101009.28;;;6.53;100.00
11985;BME280;6052;53.246;10.368;2024-02-14T02:34:43;101012.78;;;6.54;100.00
11985;BME280;6052;53.246;10.368;2024-02-14T02:37:13;101008.03;;;6.36;100.00
11985;BME280;6052;53.246;10.368;2024-02-14T02:39:47;101008.84;;;6.30;100.00
11985;BME280;6052;53.246;10.368;2024-02-14T02:42:18;101003.09;;;6.27;100.00
11985;BME280;6052;53.246;10.368;2024-02-14T02:44:49;101002.88;;;6.28;100.00
11985;BME280;6052;53.246;10.368;2024-02-14T02:47:19;101002.09;;;6.34;100.00
11985;BME280;6052;53.246;10.368;2024-02-14T02:49:48;100999.81;;;6.25;100.00
11985;BME280;6052;53.246;10.368;2024-02-14T02:52:19;100992.00;;;6.23;100.00
11985;BME280;6052;53.246;10.368;2024-02-14T02:54:51;100987.53;;;6.30;100.00
11985;BME280;6052;53.246;10.368;2024-02-14T02:57:21;100986.28;;;6.20;100.00
11985;BME280;6052;53.246;10.368;2024-02-14T02:59:53;100984.44;;;6.20;100.00
11985;BME280;6052;53.246;10.368;2024-02-14T03:02:24;100981.75;;;6.14;100.00
11985;BME280;6052;53.246;10.368;2024-02-14T03:04:55;100977.84;;;6.16;100.00
11985;BME280;6052;53.246;10.368;2024-02-14T03:07:26;100975.59;;;6.20;100.00
11985;BME280;6052;53.246;10.368;2024-02-14T03:09:58;100986.91;;;6.35;100.00
11985;BME280;6052;53.246;10.368;2024-02-14T03:12:30;100985.88;;;6.36;100.00
11985;BME280;6052;53.246;10.368;2024-02-14T03:15:03;100974.81;;;6.32;100.00
11985;BME280;6052;53.246;10.368;2024-02-14T03:17:37;100975.44;;;6.34;100.00
11985;BME280;6052;53.246;10.368;2024-02-14T03:20:08;100968.44;;;6.27;100.00
11985;BME280;6052;53.246;10.368;2024-02-14T03:22:44;100972.34;;;6.31;100.00
11985;BME280;6052;53.246;10.368;2024-02-14T03:25:19;100974.00;;;6.38;100.00
11985;BME280;6052;53.246;10.368;2024-02-14T03:27:50;100978.53;;;6.44;100.00
11985;BME280;6052;53.246;10.368;2024-02-14T03:30:20;100969.09;;;6.42;100.00
11985;BME280;6052;53.246;10.368;2024-02-14T03:32:50;100967.44;;;6.41;100.00
11985;BME280;6052;53.246;10.368;2024-02-14T03:35:23;100962.53;;;6.51;100.00
11985;BME280;6052;53.246;10.368;2024-02-14T03:37:53;100952.28;;;6.41;100.00
11985;BME280;6052;53.246;10.368;2024-02-14T03:40:26;100947.97;;;6.34;100.00
11985;BME280;6052;53.246;10.368;2024-02-14T03:42:57;100940.56;;;6.36;100.00
11985;BME280;6052;53.246;10.368;2024-02-14T03:45:27;100940.56;;;6.36;100.00
11985;BME280;6052;53.246;10.368;2024-02-14T03:47:57;100932.97;;;6.20;100.00
11985;BME280;6052;53.246;10.368;2024-02-14T03:50:27;100932.97;;;6.20;100.00
11985;BME280;6052;53.246;10.368;2024-02-14T03:52:57;100929.06;;;6.16;100.00
11985;BME280;6052;53.246;10.368;2024-02-14T03:55:29;100926.22;;;6.24;100.00
11985;BME280;6052;53.246;10.368;2024-02-14T03:57:59;100915.94;;;6.21;100.00
11985;BME280;6052;53.246;10.368;2024-02-14T04:00:30;100917.41;;;6.30;100.00
11985;BME280;6052;53.246;10.368;2024-02-14T04:03:00;100929.69;;;6.31;100.00
11985;BME280;6052;53.246;10.368;2024-02-14T04:05:30;100927.47;;;6.28;100.00
11985;BME280;6052;53.246;10.368;2024-02-14T04:08:00;100926.03;;;6.32;100.00
11985;BME280;6052;53.246;10.368;2024-02-14T04:10:33;100926.22;;;6.24;100.00
11985;BME280;6052;53.246;10.368;2024-02-14T04:13:03;100917.59;;;6.28;100.00
11985;BME280;6052;53.246;10.368;2024-02-14T04:15:33;100906.13;;;6.21;100.00
11985;BME280;6052;53.246;10.368;2024-02-14T04:18:03;100909.81;;;6.14;100.00
11985;BME280;6052;53.246;10.368;2024-02-14T04:20:34;100905.09;;;6.29;100.00
11985;BME280;6052;53.246;10.368;2024-02-14T04:23:04;100907.13;;;6.27;100.00
11985;BME280;6052;53.246;10.368;2024-02-14T04:25:37;100903.03;;;6.24;100.00
11985;BME280;6052;53.246;10.368;2024-02-14T04:28:07;100901.22;;;6.31;100.00
11985;BME280;6052;53.246;10.368;2024-02-14T04:30:38;100900.19;;;6.32;100.00
11985;BME280;6052;53.246;10.368;2024-02-14T04:33:05;100903.69;;;6.33;100.00
11985;BME280;6052;53.246;10.368;2024-02-14T04:35:40;100898.34;;;6.39;100.00
11985;BME280;6052;53.246;10.368;2024-02-14T04:38:11;100889.91;;;6.36;100.00
11985;BME280;6052;53.246;10.368;2024-02-14T04:40:43;100894.84;;;6.32;100.00
11985;BME280;6052;53.246;10.368;2024-02-14T04:43:13;100896.69;;;6.45;100.00
11985;BME280;6052;53.246;10.368;2024-02-14T04:45:43;100904.91;;;6.37;100.00
11985;BME280;6052;53.246;10.368;2024-02-14T04:48:13;100903.06;;;6.44;100.00
11985;BME280;6052;53.246;10.368;2024-02-14T04:50:43;100906.75;;;6.30;100.00
11985;BME280;6052;53.246;10.368;2024-02-14T04:53:13;100903.25;;;6.49;100.00
11985;BME280;6052;53.246;10.368;2024-02-14T04:55:46;100893.63;;;6.35;100.00
11985;BME280;6052;53.246;10.368;2024-02-14T04:58:16;100896.72;;;6.32;100.00
11985;BME280;6052;53.246;10.368;2024-02-14T05:00:46;100886.25;;;6.30;100.00
11985;BME280;6052;53.246;10.368;2024-02-14T05:03:15;100889.72;;;6.37;100.00
11985;BME280;6052;53.246;10.368;2024-02-14T05:05:45;100894.84;;;6.26;100.00
11985;BME280;6052;53.246;10.368;2024-02-14T05:08:15;100896.47;;;6.27;100.00
11985;BME280;6052;53.246;10.368;2024-02-14T05:10:48;100893.22;;;6.38;100.00
11985;BME280;6052;53.246;10.368;2024-02-14T05:13:18;100886.25;;;6.30;100.00
11985;BME280;6052;53.246;10.368;2024-02-14T05:15:48;100882.56;;;6.38;100.00
11985;BME280;6052;53.246;10.368;2024-02-14T05:18:18;100880.28;;;6.35;100.00
11985;BME280;6052;53.246;10.368;2024-02-14T05:20:48;100878.44;;;6.29;100.00
11985;BME280;6052;53.246;10.368;2024-02-14T05:23:18;100878.66;;;6.34;100.00
11985;BME280;6052;53.246;10.368;2024-02-14T05:25:50;100873.13;;;6.29;100.00
11985;BME280;6052;53.246;10.368;2024-02-14T05:28:20;100885.03;;;6.39;100.00
11985;BME280;6052;53.246;10.368;2024-02-14T05:30:50;100877.22;;;6.44;100.00
11985;BME280;6052;53.246;10.368;2024-02-14T05:33:22;100880.69;;;6.45;100.00
11985;BME280;6052;53.246;10.368;2024-02-14T05:35:52;100873.72;;;6.44;100.00
11985;BME280;6052;53.246;10.368;2024-02-14T05:38:22;100874.78;;;6.49;100.00
11985;BME280;6052;53.246;10.368;2024-02-14T05:40:55;100865.72;;;6.50;100.00
11985;BME280;6052;53.246;10.368;2024-02-14T05:43:24;100862.03;;;6.45;100.00
11985;BME280;6052;53.246;10.368;2024-02-14T05:45:54;100860.41;;;6.44;100.00
11985;BME280;6052;53.246;10.368;2024-02-14T05:48:24;100858.78;;;6.43;100.00
11985;BME280;6052;53.246;10.368;2024-02-14T05:50:54;100857.94;;;6.49;100.00
11985;BME280;6052;53.246;10.368;2024-02-14T05:53:24;100861.63;;;6.48;100.00
11985;BME280;6052;53.246;10.368;2024-02-14T05:55:57;100848.06;;;6.56;100.00
11985;BME280;6052;53.246;10.368;2024-02-14T05:58:26;100855.88;;;6.57;100.00
11985;BME280;6052;53.246;10.368;2024-02-14T06:00:56;100844.59;;;6.55;100.00
11985;BME280;6052;53.246;10.368;2024-02-14T06:03:26;100842.75;;;6.56;100.00
11985;BME280;6052;53.246;10.368;2024-02-14T06:05:56;100842.97;;;6.54;100.00
11985;BME280;6052;53.246;10.368;2024-02-14T06:08:26;100842.75;;;6.56;100.00
11985;BME280;6052;53.246;10.368;2024-02-14T06:10:58;100841.75;;;6.50;100.00
11985;BME280;6052;53.246;10.368;2024-02-14T06:13:28;100831.03;;;6.63;100.00
11985;BME280;6052;53.246;10.368;2024-02-14T06:15:58;100837.84;;;6.59;100.00
11985;BME280;6052;53.246;10.368;2024-02-14T06:18:28;100839.06;;;6.57;100.00
11985;BME280;6052;53.246;10.368;2024-02-14T06:20:58;100842.53;;;6.64;100.00
11985;BME280;6052;53.246;10.368;2024-02-14T06:23:28;100835.78;;;6.61;100.00
11985;BME280;6052;53.246;10.368;2024-02-14T06:26:00;100830.44;;;6.61;100.00
11985;BME280;6052;53.246;10.368;2024-02-14T06:28:30;100834.13;;;6.73;100.00
11985;BME280;6052;53.246;10.368;2024-02-14T06:31:01;100834.53;;;6.70;100.00
11985;BME280;6052;53.246;10.368;2024-02-14T06:33:31;100827.13;;;6.72;100.00
11985;BME280;6052;53.246;10.368;2024-02-14T06:36:02;100830.22;;;6.69;100.00
11985;BME280;6052;53.246;10.368;2024-02-14T06:38:32;100832.06;;;6.69;100.00
11985;BME280;6052;53.246;10.368;2024-02-14T06:41:05;100840.25;;;6.67;100.00
11985;BME280;6052;53.246;10.368;2024-02-14T06:43:35;100839.84;;;6.77;100.00
11985;BME280;6052;53.246;10.368;2024-02-14T06:46:06;100841.50;;;6.78;100.00
11985;BME280;6052;53.246;10.368;2024-02-14T06:48:35;100838.19;;;6.82;100.00
11985;BME280;6052;53.246;10.368;2024-02-14T06:51:06;100839.03;;;6.76;100.00
11985;BME280;6052;53.246;10.368;2024-02-14T06:53:36;100841.66;;;6.89;100.00
11985;BME280;6052;53.246;10.368;2024-02-14T06:56:09;100837.78;;;6.79;100.00
11985;BME280;6052;53.246;10.368;2024-02-14T06:58:39;100841.69;;;6.83;100.00
11985;BME280;6052;53.246;10.368;2024-02-14T07:01:09;100839.41;;;6.80;100.00
11985;BME280;6052;53.246;10.368;2024-02-14T07:03:40;100842.09;;;6.80;100.00
11985;BME280;6052;53.246;10.368;2024-02-14T07:06:11;100831.00;;;6.83;100.00
11985;BME280;6052;53.246;10.368;2024-02-14T07:08:41;100845.13;;;6.90;100.00
11985;BME280;6052;53.246;10.368;2024-02-14T07:11:14;100844.13;;;6.91;100.00
11985;BME280;6052;53.246;10.368;2024-02-14T07:13:45;100840.44;;;6.85;100.00
11985;BME280;6052;53.246;10.368;2024-02-14T07:16:15;100834.47;;;6.90;100.00
11985;BME280;6052;53.246;10.368;2024-02-14T07:18:44;100836.94;;;6.91;100.00
11985;BME280;6052;53.246;10.368;2024-02-14T07:21:14;100839.19;;;6.88;100.00
11985;BME280;6052;53.246;10.368;2024-02-14T07:23:44;100828.94;;;6.91;100.00
11985;BME280;6052;53.246;10.368;2024-02-14T07:26:17;100840.19;;;7.00;100.00
11985;BME280;6052;53.246;10.368;2024-02-14T07:28:47;100835.47;;;7.02;100.00
11985;BME280;6052;53.246;10.368;2024-02-14T07:31:17;100836.53;;;6.94;100.00
11985;BME280;6052;53.246;10.368;2024-02-14T07:33:46;100836.09;;;6.97;100.00
11985;BME280;6052;53.246;10.368;2024-02-14T07:36:20;100837.75;;;6.98;100.00
11985;BME280;6052;53.246;10.368;2024-02-14T07:38:50;100832.81;;;7.02;100.00
11985;BME280;6052;53.246;10.368;2024-02-14T07:41:22;100822.69;;;7.10;100.00
11985;BME280;6052;53.246;10.368;2024-02-14T07:43:52;100839.53;;;7.17;100.00
11985;BME280;6052;53.246;10.368;2024-02-14T07:46:23;100840.59;;;7.10;100.00
11985;BME280;6052;53.246;10.368;2024-02-14T07:48:56;100827.84;;;7.12;100.00
11985;BME280;6052;53.246;10.368;2024-02-14T07:51:26;100829.25;;;7.21;100.00
11985;BME280;6052;53.246;10.368;2024-02-14T07:53:57;100824.75;;;7.15;100.00
11985;BME280;6052;53.246;10.368;2024-02-14T07:56:29;100830.88;;;7.22;100.00
11985;BME280;6052;53.246;10.368;2024-02-14T07:58:59;100822.88;;;7.15;100.00
11985;BME280;6052;53.246;10.368;2024-02-14T08:01:30;100824.75;;;7.15;100.00
11985;BME280;6052;53.246;10.368;2024-02-14T08:03:59;100825.50;;;7.28;100.00
11985;BME280;6052;53.246;10.368;2024-02-14T08:06:31;100824.28;;;7.31;100.00
11985;BME280;6052;53.246;10.368;2024-02-14T08:09:01;100828.97;;;7.29;100.00
11985;BME280;6052;53.246;10.368;2024-02-14T08:11:36;100818.72;;;7.32;100.00
11985;BME280;6052;53.246;10.368;2024-02-14T08:14:06;100824.63;;;7.41;100.00
11985;BME280;6052;53.246;10.368;2024-02-14T08:16:36;100825.25;;;7.36;100.00
11985;BME280;6052;53.246;10.368;2024-02-14T08:19:05;100821.34;;;7.39;100.00
11985;BME280;6052;53.246;10.368;2024-02-14T08:21:35;100822.38;;;7.38;100.00
11985;BME280;6052;53.246;10.368;2024-02-14T08:24:05;100820.72;;;7.43;100.00
11985;BME280;6052;53.246;10.368;2024-02-14T08:26:38;100822.56;;;7.43;100.00
11985;BME280;6052;53.246;10.368;2024-02-14T08:29:08;100823.59;;;7.42;100.00
11985;BME280;6052;53.246;10.368;2024-02-14T08:31:38;100825.38;;;7.54;100.00
11985;BME280;6052;53.246;10.368;2024-02-14T08:34:08;100817.97;;;7.56;100.00
11985;BME280;6052;53.246;10.368;2024-02-14T08:36:38;100823.31;;;7.56;100.00
11985;BME280;6052;53.246;10.368;2024-02-14T08:39:09;100818.16;;;7.61;100.00
11985;BME280;6052;53.246;10.368;2024-02-14T08:41:44;100822.63;;;7.67;100.00
11985;BME280;6052;53.246;10.368;2024-02-14T08:44:14;100816.00;;;7.76;100.00
11985;BME280;6052;53.246;10.368;2024-02-14T08:46:44;100823.78;;;7.78;100.00
11985;BME280;6052;53.246;10.368;2024-02-14T08:49:15;100820.50;;;7.76;100.00
11985;BME280;6052;53.246;10.368;2024-02-14T08:51:45;100826.63;;;7.83;100.00
11985;BME280;6052;53.246;10.368;2024-02-14T08:54:15;100821.84;;;7.91;100.00
11985;BME280;6052;53.246;10.368;2024-02-14T08:56:48;100815.09;;;7.89;100.00
11985;BME280;6052;53.246;10.368;2024-02-14T08:59:20;100829.22;;;7.96;100.00
11985;BME280;6052;53.246;10.368;2024-02-14T09:01:50;100831.63;;;8.04;100.00
11985;BME280;6052;53.246;10.368;2024-02-14T09:04:20;100820.50;;;8.07;100.00
11985;BME280;6052;53.246;10.368;2024-02-14T09:06:50;100826.44;;;8.09;100.00
11985;BME280;6052;53.246;10.368;2024-02-14T09:09:20;100829.88;;;8.16;100.00
11985;BME280;6052;53.246;10.368;2024-02-14T09:11:52;100826.16;;;8.17;100.00
11985;BME280;6052;53.246;10.368;2024-02-14T09:14:22;100821.84;;;8.22;100.00
11985;BME280;6052;53.246;10.368;2024-02-14T09:16:55;100823.41;;;8.30;100.00
11985;BME280;6052;53.246;10.368;2024-02-14T09:19:25;100829.59;;;8.30;100.00
11985;BME280;6052;53.246;10.368;2024-02-14T09:21:55;100831.19;;;8.38;100.00
11985;BME280;6052;53.246;10.368;2024-02-14T09:24:25;100827.47;;;8.39;100.00
11985;BME280;6052;53.246;10.368;2024-02-14T09:26:58;100832.75;;;8.45;100.00
11985;BME280;6052;53.246;10.368;2024-02-14T09:29:29;100820.44;;;8.44;100.00
11985;BME280;6052;53.246;10.368;2024-02-14T09:31:59;100829.41;;;8.50;100.00
11985;BME280;6052;53.246;10.368;2024-02-14T09:34:29;100831.19;;;8.56;100.00
11985;BME280;6052;53.246;10.368;2024-02-14T09:36:59;100828.94;;;8.59;100.00
11985;BME280;6052;53.246;10.368;2024-02-14T09:39:29;100832.19;;;8.61;100.00
11985;BME280;6052;53.246;10.368;2024-02-14T09:42:06;100829.88;;;8.65;100.00
11985;BME280;6052;53.246;10.368;2024-02-14T09:44:39;100826.16;;;8.66;100.00
11985;BME280;6052;53.246;10.368;2024-02-14T09:47:10;100836.28;;;8.64;100.00
11985;BME280;6052;53.246;10.368;2024-02-14T09:49:39;100835.16;;;8.71;100.00
11985;BME280;6052;53.246;10.368;2024-02-14T09:52:11;100834.53;;;8.76;100.00
11985;BME280;6052;53.246;10.368;2024-02-14T09:54:43;100826.50;;;8.76;100.00
11985;BME280;6052;53.246;10.368;2024-02-14T09:57:16;100833.63;;;8.82;100.00
11985;BME280;6052;53.246;10.368;2024-02-14T09:59:46;100832.44;;;8.78;100.00
11985;BME280;6052;53.246;10.368;2024-02-14T10:02:18;100833.16;;;8.85;100.00
11985;BME280;6052;53.246;10.368;2024-02-14T10:04:48;100836.00;;;8.90;100.00
11985;BME280;6052;53.246;10.368;2024-02-14T10:07:19;100838.03;;;8.94;100.00
11985;BME280;6052;53.246;10.368;2024-02-14T10:09:48;100834.28;;;8.95;100.00
11985;BME280;6052;53.246;10.368;2024-02-14T10:12:21;100833.75;;;9.05;100.00
11985;BME280;6052;53.246;10.368;2024-02-14T10:14:51;100837.88;;;9.07;100.00
11985;BME280;6052;53.246;10.368;2024-02-14T10:17:21;100837.19;;;9.12;100.00
11985;BME280;6052;53.246;10.368;2024-02-14T10:19:58;100846.88;;;9.13;100.00
11985;BME280;6052;53.246;10.368;2024-02-14T10:22:32;100848.13;;;9.10;100.00
11985;BME280;6052;53.246;10.368;2024-02-14T10:25:05;100847.78;;;9.25;100.00
11985;BME280;6052;53.246;10.368;2024-02-14T10:27:39;100854.13;;;9.24;100.00
11985;BME280;6052;53.246;10.368;2024-02-14T10:30:09;100855.66;;;9.20;100.00
11985;BME280;6052;53.246;10.368;2024-02-14T10:32:41;100848.19;;;9.22;100.00
11985;BME280;6052;53.246;10.368;2024-02-14T10:35:15;100856.25;;;9.22;100.00
11985;BME280;6052;53.246;10.368;2024-02-14T10:37:47;100851.75;;;9.34;100.00
11985;BME280;6052;53.246;10.368;2024-02-14T10:40:17;100864.56;;;9.32;100.00
11985;BME280;6052;53.246;10.368;2024-02-14T10:42:49;100855.41;;;9.39;100.00
11985;BME280;6052;53.246;10.368;2024-02-14T10:45:21;100856.81;;;9.42;100.00
11985;BME280;6052;53.246;10.368;2024-02-14T10:47:51;100863.56;;;9.44;100.00
11985;BME280;6052;53.246;10.368;2024-02-14T10:50:22;100863.34;;;9.46;100.00
11985;BME280;6052;53.246;10.368;2024-02-14T10:52:57;100857.91;;;9.52;100.00
11985;BME280;6052;53.246;10.368;2024-02-14T10:55:30;100867.28;;;9.61;100.00
11985;BME280;6052;53.246;10.368;2024-02-14T10:58:03;100867.72;;;9.58;100.00
11985;BME280;6052;53.246;10.368;2024-02-14T11:00:33;100851.09;;;9.68;100.00
11985;BME280;6052;53.246;10.368;2024-02-14T11:03:03;100861.94;;;9.61;100.00
11985;BME280;6052;53.246;10.368;2024-02-14T11:05:42;100860.88;;;9.62;100.00
11985;BME280;6052;53.246;10.368;2024-02-14T11:08:13;100863.75;;;9.79;100.00
11985;BME280;6052;53.246;10.368;2024-02-14T11:10:43;100863.91;;;9.66;100.00
11985;BME280;6052;53.246;10.368;2024-02-14T11:13:28;100867.56;;;9.71;100.00
11985;BME280;6052;53.246;10.368;2024-02-14T11:16:00;100861.06;;;9.79;100.00
11985;BME280;6052;53.246;10.368;2024-02-14T11:18:31;100864.16;;;9.94;100.00
11985;BME280;6052;53.246;10.368;2024-02-14T11:21:03;100858.53;;;9.84;100.00
11985;BME280;6052;53.246;10.368;2024-02-14T11:23:33;100858.31;;;9.97;100.00
11985;BME280;6052;53.246;10.368;2024-02-14T11:26:03;100854.34;;;9.99;100.00
11985;BME280;6052;53.246;10.368;2024-02-14T11:28:40;100860.69;;;10.05;100.00
11985;BME280;6052;53.246;10.368;2024-02-14T11:31:09;100867.91;;;10.04;100.00
11985;BME280;6052;53.246;10.368;2024-02-14T11:33:39;100857.56;;;10.08;100.00
11985;BME280;6052;53.246;10.368;2024-02-14T11:36:13;100868.06;;;10.09;100.00
11985;BME280;6052;53.246;10.368;2024-02-14T11:38:43;100867.94;;;10.16;100.00
11985;BME280;6052;53.246;10.368;2024-02-14T11:41:14;100867.03;;;10.22;100.00
11985;BME280;6052;53.246;10.368;2024-02-14T11:43:53;100876.34;;;10.19;100.00
11985;BME280;6052;53.246;10.368;2024-02-14T11:46:23;100872.16;;;10.23;100.00
11985;BME280;6052;53.246;10.368;2024-02-14T11:48:55;100873.13;;;10.29;100.00
11985;BME280;6052;53.246;10.368;2024-02-14T11:51:27;100878.94;;;10.26;100.00
11985;BME280;6052;53.246;10.368;2024-02-14T11:53:58;100889.56;;;10.32;100.00
11985;BME280;6052;53.246;10.368;2024-02-14T11:56:32;100880.72;;;10.32;100.00
11985;BME280;6052;53.246;10.368;2024-02-14T11:59:06;100886.22;;;10.37;100.00
11985;BME280;6052;53.246;10.368;2024-02-14T12:01:38;100882.00;;;10.41;100.00
11985;BME280;6052;53.246;10.368;2024-02-14T12:04:08;100887.50;;;10.46;100.00
11985;BME280;6052;53.246;10.368;2024-02-14T12:06:40;100885.41;;;10.48;100.00
11985;BME280;6052;53.246;10.368;2024-02-14T12:09:11;100882.00;;;10.41;100.00
11985;BME280;6052;53.246;10.368;2024-02-14T12:11:42;100889.72;;;10.49;100.00
11985;BME280;6052;53.246;10.368;2024-02-14T12:14:15;100885.75;;;10.51;100.00
11985;BME280;6052;53.246;10.368;2024-02-14T12:16:51;100893.59;;;10.53;100.00
11985;BME280;6052;53.246;10.368;2024-02-14T12:19:20;100900.00;;;10.52;100.00
11985;BME280;6052;53.246;10.368;2024-02-14T12:21:51;100899.88;;;10.58;100.00
11985;BME280;6052;53.246;10.368;2024-02-14T12:24:21;100903.84;;;10.56;100.00
11985;BME280;6052;53.246;10.368;2024-02-14T12:26:52;100908.19;;;10.57;100.00
11985;BME280;6052;53.246;10.368;2024-02-14T12:29:24;100910.16;;;10.61;100.00
11985;BME280;6052;53.246;10.368;2024-02-14T12:32:03;100907.38;;;10.68;100.00
11985;BME280;6052;53.246;10.368;2024-02-14T12:34:33;100906.19;;;10.64;100.00
11985;BME280;6052;53.246;10.368;2024-02-14T12:37:03;100904.91;;;10.66;100.00
11985;BME280;6052;53.246;10.368;2024-02-14T12:39:35;100910.28;;;10.66;100.00
11985;BME280;6052;53.246;10.368;2024-02-14T12:42:07;100909.59;;;10.71;100.00
11985;BME280;6052;53.246;10.368;2024-02-14T12:44:40;100912.84;;;10.73;100.00
11985;BME280;6052;53.246;10.368;2024-02-14T12:47:10;100909.59;;;10.71;100.00
11985;BME280;6052;53.246;10.368;2024-02-14T12:49:40;100912.41;;;10.76;100.00
11985;BME280;6052;53.246;10.368;2024-02-14T12:52:12;100922.88;;;10.77;100.00
11985;BME280;6052;53.246;10.368;2024-02-14T12:54:41;100919.97;;;10.79;100.00
11985;BME280;6052;53.246;10.368;2024-02-14T12:57:11;100916.94;;;10.87;100.00
11985;BME280;6052;53.246;10.368;2024-02-14T12:59:45;100912.25;;;10.82;100.00
11985;BME280;6052;53.246;10.368;2024-02-14T13:02:15;100914.72;;;10.84;100.00
11985;BME280;6052;53.246;10.368;2024-02-14T13:04:45;100917.63;;;10.82;100.00
11985;BME280;6052;53.246;10.368;2024-02-14T13:07:15;100910.19;;;10.84;100.00